Grover Beach, California
Current Conditions -  °F | °C
As of 3:56 PM on Thursday 18 Dec 2014 (Local Time) from KSBP Reporting Station
Scattered Clouds Scattered Clouds  
Wind Chill: 59°   Ceiling: Unl
Heat Index: 59°   Visibility: 10mi
Dew Point: 52°   Wind: 3mph
Humidity: 78%   Direction: 320°NW
Pressure: 30.14"   Gusts: NA
Location:  35.12°N, 120.62°W
Report Text: KSBP 182356Z 32003KT 10SM SCT045 15/11 A3014 RMK AO2 SLP206 T01500111 10161 20122 58001
Loading
Personal Weather Stations






























Interactive Weather Map New forecast layout! Learn more

10-Day Weather Forecast

Advertisements
Track Severe Weather on mobile